createdAt,value
2022-09-12T00:01:19.326Z,6.00
2022-09-12T00:03:46.829Z,8.23
2022-09-12T00:06:37.579Z,7.50
2022-09-12T00:09:14.196Z,5.33
2022-09-12T00:11:46.151Z,6.60
2022-09-12T00:14:18.385Z,5.77
2022-09-12T00:16:45.605Z,5.83
2022-09-12T00:19:13.252Z,7.00
2022-09-12T00:21:40.993Z,8.23
2022-09-12T00:24:09.358Z,8.40
2022-09-12T00:26:36.795Z,8.30
2022-09-12T00:29:03.772Z,8.67
2022-09-12T00:31:30.829Z,7.73
2022-09-12T00:34:00.867Z,8.50
2022-09-12T00:36:30.406Z,7.77
2022-09-12T00:38:57.674Z,5.77
2022-09-12T00:41:33.912Z,6.67
2022-09-12T00:44:23.293Z,5.47
2022-09-12T00:47:05.409Z,5.77
2022-09-12T00:50:09.601Z,4.87
2022-09-12T00:52:53.533Z,5.07
2022-09-12T00:55:27.818Z,5.40
2022-09-12T00:58:10.177Z,4.03
2022-09-12T01:00:37.470Z,3.80
2022-09-12T01:03:15.521Z,4.63
2022-09-12T01:06:09.369Z,5.67
2022-09-12T01:08:37.412Z,7.27
2022-09-12T01:11:06.706Z,6.43
2022-09-12T01:13:36.266Z,5.07
2022-09-12T01:16:08.392Z,7.17
2022-09-12T01:19:46.277Z,5.63
2022-09-12T01:23:37.826Z,5.33
2022-09-12T01:26:43.148Z,5.43
2022-09-12T01:29:41.047Z,4.07
2022-09-12T01:32:12.977Z,6.27
2022-09-12T01:34:56.711Z,8.20
2022-09-12T01:38:23.795Z,5.50
2022-09-12T01:41:31.368Z,6.00
2022-09-12T01:44:06.710Z,4.20
2022-09-12T01:47:10.144Z,4.43
2022-09-12T01:49:52.824Z,3.53
2022-09-12T01:52:58.968Z,4.00
2022-09-12T01:55:42.691Z,3.87
2022-09-12T01:58:29.615Z,5.63
2022-09-12T02:01:15.266Z,6.43
2022-09-12T02:03:56.046Z,3.53
2022-09-12T02:06:58.766Z,3.23
2022-09-12T02:09:42.999Z,5.10
2022-09-12T02:12:14.777Z,4.90
2022-09-12T02:14:50.058Z,4.60
2022-09-12T02:17:22.943Z,6.17
2022-09-12T02:20:06.995Z,6.40
2022-09-12T02:22:38.801Z,5.90
2022-09-12T02:25:11.519Z,6.37
2022-09-12T02:27:54.290Z,5.37
2022-09-12T02:30:22.700Z,5.90
2022-09-12T02:33:04.122Z,7.03
2022-09-12T02:36:02.001Z,6.20
2022-09-12T02:38:47.903Z,5.70
2022-09-12T02:41:20.627Z,4.70
2022-09-12T02:43:50.393Z,5.43
2022-09-12T02:46:33.023Z,5.23
2022-09-12T02:48:59.986Z,4.93
2022-09-12T02:51:27.350Z,5.03
2022-09-12T02:53:54.562Z,4.47
2022-09-12T02:56:30.384Z,6.67
2022-09-12T02:59:07.991Z,4.77
2022-09-12T03:02:00.309Z,5.83
2022-09-12T03:05:03.224Z,8.83
2022-09-12T03:08:14.722Z,10.63
2022-09-12T03:10:57.642Z,9.03
2022-09-12T03:14:05.006Z,8.77
2022-09-12T03:17:14.404Z,8.53
2022-09-12T03:20:51.285Z,7.63
2022-09-12T03:24:05.140Z,4.90
2022-09-12T03:27:09.590Z,5.47
2022-09-12T03:29:39.191Z,6.67
2022-09-12T03:32:07.436Z,8.37
2022-09-12T03:34:34.528Z,8.37
2022-09-12T03:37:01.562Z,7.97
2022-09-12T03:39:28.669Z,9.70
2022-09-12T03:41:56.359Z,9.53
2022-09-12T03:44:24.179Z,8.63
2022-09-12T03:46:51.426Z,7.47
2022-09-12T03:49:18.633Z,9.23
2022-09-12T03:51:45.662Z,9.20
2022-09-12T03:54:12.734Z,9.57
2022-09-12T03:56:41.191Z,9.70
2022-09-12T03:59:08.252Z,7.83
2022-09-12T04:01:35.439Z,8.17
2022-09-12T04:04:03.434Z,9.27
2022-09-12T04:06:31.204Z,9.37
2022-09-12T04:08:58.548Z,9.30
2022-09-12T04:11:25.818Z,9.73
2022-09-12T04:13:53.072Z,9.63
2022-09-12T04:16:20.338Z,9.30
2022-09-12T04:18:47.599Z,10.10
2022-09-12T04:21:19.895Z,11.37
2022-09-12T04:23:47.016Z,12.20
2022-09-12T04:26:15.538Z,10.57
2022-09-12T04:28:42.733Z,10.23
2022-09-12T04:31:21.298Z,9.83
2022-09-12T04:33:53.133Z,10.13
2022-09-12T04:36:27.674Z,10.87
2022-09-12T04:38:55.688Z,8.23
2022-09-12T04:41:30.706Z,8.47
2022-09-12T04:44:13.180Z,7.97
2022-09-12T04:46:45.554Z,8.03
2022-09-12T04:49:14.341Z,7.30
2022-09-12T04:51:42.860Z,4.17
2022-09-12T04:54:19.119Z,5.83
2022-09-12T04:56:49.994Z,7.13
2022-09-12T04:59:19.893Z,5.33
2022-09-12T05:01:47.158Z,5.70
2022-09-12T05:04:14.950Z,4.33
2022-09-12T05:06:42.642Z,4.67
2022-09-12T05:09:14.127Z,4.10
2022-09-12T05:14:33.015Z,7.87
2022-09-12T05:17:01.990Z,9.83
2022-09-12T05:19:31.249Z,11.13
2022-09-12T05:21:59.110Z,10.37
2022-09-12T05:24:26.801Z,6.83
2022-09-12T05:26:54.040Z,5.87
2022-09-12T05:29:21.263Z,7.70
2022-09-12T05:31:53.429Z,10.03
2022-09-12T05:34:21.434Z,8.80
2022-09-12T05:36:49.180Z,7.90
2022-09-12T05:39:16.698Z,7.93
2022-09-12T05:41:43.943Z,6.50
2022-09-12T05:44:14.845Z,9.00
2022-09-12T05:46:45.616Z,7.03
2022-09-12T05:49:14.613Z,8.73
2022-09-12T05:51:45.995Z,7.70
2022-09-12T05:54:20.335Z,8.10
2022-09-12T05:56:51.387Z,7.73
2022-09-12T05:59:22.018Z,7.57
2022-09-12T06:01:49.617Z,6.63
2022-09-12T06:04:17.580Z,7.97
2022-09-12T06:06:46.335Z,8.10
2022-09-12T06:09:16.276Z,8.17
2022-09-12T06:11:44.847Z,8.10
2022-09-12T06:14:15.544Z,8.03
2022-09-12T06:16:43.031Z,7.27
2022-09-12T06:19:23.752Z,7.33
2022-09-12T06:21:51.556Z,7.03
2022-09-12T06:24:20.926Z,7.67
2022-09-12T06:26:49.850Z,7.60
2022-09-12T06:29:17.236Z,6.93
2022-09-12T06:31:44.762Z,7.37
2022-09-12T06:34:15.789Z,7.57
2022-09-12T06:36:47.314Z,7.93
2022-09-12T06:39:18.474Z,7.00
2022-09-12T06:41:46.243Z,7.77
2022-09-12T06:44:20.912Z,7.87
2022-09-12T06:46:49.487Z,8.17
2022-09-12T06:49:17.742Z,7.50
2022-09-12T06:51:45.035Z,7.43
2022-09-12T06:54:17.167Z,6.50
2022-09-12T06:56:45.172Z,6.93
2022-09-12T06:59:12.547Z,7.77
2022-09-12T07:01:41.159Z,8.00
2022-09-12T07:04:08.722Z,7.40
2022-09-12T07:06:40.690Z,7.70
2022-09-12T07:09:16.468Z,8.67
2022-09-12T07:11:44.611Z,7.23
2022-09-12T07:14:14.488Z,7.80
2022-09-12T07:16:42.282Z,8.03
2022-09-12T07:19:10.218Z,7.50
2022-09-12T07:21:39.973Z,8.43
2022-09-12T07:24:10.182Z,8.00
2022-09-12T07:26:40.529Z,8.17
2022-09-12T07:29:35.438Z,7.87
2022-09-12T07:32:01.593Z,7.37
2022-09-12T07:34:28.631Z,7.23
2022-09-12T07:36:55.589Z,5.80
2022-09-12T07:39:22.527Z,5.90
2022-09-12T07:41:49.560Z,5.87
2022-09-12T07:44:16.773Z,4.77
2022-09-12T07:46:43.801Z,5.27
2022-09-12T07:49:13.227Z,4.83
2022-09-12T07:51:41.152Z,4.77
2022-09-12T07:54:09.596Z,4.23
2022-09-12T07:56:39.220Z,4.80
2022-09-12T07:59:08.210Z,4.03
2022-09-12T08:01:35.436Z,4.13
2022-09-12T08:04:04.881Z,3.50
2022-09-12T08:06:33.794Z,2.83
2022-09-12T08:09:01.876Z,2.90
2022-09-12T08:11:30.258Z,2.83
2022-09-12T08:13:58.542Z,2.50
2022-09-12T08:16:30.240Z,1.90
2022-09-12T08:18:59.817Z,2.03
2022-09-12T08:21:32.734Z,1.80
2022-09-12T08:24:06.137Z,1.83
2022-09-12T08:26:34.721Z,2.00
2022-09-12T08:29:03.788Z,1.60
2022-09-12T08:31:36.362Z,1.50
2022-09-12T08:34:07.119Z,1.63
2022-09-12T08:36:35.325Z,1.77
2022-09-12T08:39:07.092Z,1.70
2022-09-12T08:42:02.865Z,1.05
2022-09-12T08:45:15.882Z,1.40
2022-09-12T08:47:46.866Z,1.37
2022-09-12T08:50:22.265Z,1.10
2022-09-12T08:53:10.414Z,1.60
2022-09-12T08:55:46.666Z,1.80
2022-09-12T08:58:25.230Z,1.40
2022-09-12T09:01:29.998Z,1.63
2022-09-12T09:04:18.471Z,1.48
2022-09-12T09:07:43.709Z,1.95
2022-09-12T09:10:53.599Z,1.40
2022-09-12T09:13:56.577Z,1.95
2022-09-12T09:16:33.251Z,1.10
2022-09-12T09:19:12.768Z,0.80
2022-09-12T09:22:06.272Z,0.77
2022-09-12T09:24:48.173Z,0.90
2022-09-12T09:27:41.627Z,0.90
2022-09-12T09:30:21.305Z,1.00
2022-09-12T09:32:57.381Z,0.75
2022-09-12T09:35:48.788Z,1.10
2022-09-12T09:38:46.088Z,0.50
2022-09-12T09:41:40.868Z,0.52
2022-09-12T09:46:40.024Z,0.45
2022-09-12T09:49:12.146Z,0.50
2022-09-12T09:51:42.590Z,0.50
2022-09-12T09:54:34.055Z,0.68
2022-09-12T09:57:01.251Z,0.50
2022-09-12T09:59:33.708Z,0.55
2022-09-12T10:02:14.972Z,0.50
2022-09-12T10:04:56.248Z,0.70
2022-09-12T10:07:24.675Z,0.50
2022-09-12T10:10:25.266Z,0.40
2022-09-12T10:13:30.882Z,0.68
2022-09-12T10:16:05.321Z,0.60
2022-09-12T10:18:42.678Z,0.40
2022-09-12T10:21:38.018Z,0.40
2022-09-12T10:24:30.889Z,0.32
2022-09-12T10:27:35.681Z,0.70
2022-09-12T10:30:29.235Z,0.70
2022-09-12T10:33:11.082Z,0.30
2022-09-12T10:35:49.736Z,0.40
2022-09-12T10:38:33.027Z,0.40
2022-09-12T10:41:06.649Z,0.35
2022-09-12T10:43:33.523Z,0.40
2022-09-12T10:46:28.768Z,0.40
2022-09-12T10:49:38.200Z,0.30
2022-09-12T10:52:27.318Z,0.40
2022-09-12T10:54:55.036Z,0.30
2022-09-12T10:57:51.212Z,0.47
2022-09-12T11:00:27.481Z,0.40
2022-09-12T11:03:14.666Z,0.40
2022-09-12T11:05:53.343Z,0.40
2022-09-12T11:08:51.611Z,0.45
2022-09-12T11:11:58.980Z,0.40
2022-09-12T11:15:11.049Z,0.50
2022-09-12T11:18:37.739Z,0.40
2022-09-12T11:21:34.347Z,0.50
2022-09-12T11:24:40.655Z,0.50
2022-09-12T11:27:23.698Z,0.40
2022-09-12T11:30:10.723Z,0.47
2022-09-12T11:32:49.892Z,0.63
2022-09-12T11:35:33.711Z,0.50
2022-09-12T11:38:58.817Z,0.40
2022-09-12T11:41:39.838Z,0.50
2022-09-12T11:44:24.684Z,0.60
2022-09-12T11:46:52.337Z,0.55
2022-09-12T11:49:47.284Z,0.60
2022-09-12T11:52:33.357Z,2.67
2022-09-12T11:55:22.844Z,0.50
2022-09-12T11:58:01.658Z,0.40
2022-09-12T12:00:47.016Z,0.50
2022-09-12T12:03:41.259Z,0.50
2022-09-12T12:06:56.190Z,2.28
2022-09-12T12:09:23.580Z,0.50
2022-09-12T12:11:57.581Z,0.40
2022-09-12T12:14:46.095Z,0.50
2022-09-12T12:17:18.787Z,0.50
2022-09-12T12:19:56.436Z,0.30
2022-09-12T12:22:25.437Z,0.40
2022-09-12T12:25:38.722Z,0.55
2022-09-12T12:28:06.453Z,0.40
2022-09-12T12:30:34.131Z,0.30
2022-09-12T12:33:22.632Z,0.43
2022-09-12T12:36:01.664Z,0.40
2022-09-12T12:38:33.833Z,0.30
2022-09-12T12:41:19.194Z,0.40
2022-09-12T12:43:56.340Z,0.30
2022-09-12T12:46:27.094Z,0.63
2022-09-12T12:49:27.696Z,0.30
2022-09-12T12:51:54.487Z,0.30
2022-09-12T12:54:41.083Z,0.32
2022-09-12T12:57:46.100Z,0.40
2022-09-12T13:00:39.826Z,0.43
2022-09-12T13:03:07.117Z,0.30
2022-09-12T13:06:00.468Z,0.30
2022-09-12T13:08:36.467Z,0.68
2022-09-12T13:11:09.650Z,0.50
2022-09-12T13:14:46.894Z,0.50
2022-09-12T13:17:35.625Z,0.50
2022-09-12T13:20:27.884Z,0.30
2022-09-12T13:22:59.196Z,0.55
2022-09-12T13:25:35.279Z,0.60
2022-09-12T13:28:11.394Z,0.50
2022-09-12T13:30:44.183Z,0.50
2022-09-12T13:33:39.511Z,0.50
2022-09-12T13:36:23.540Z,0.60
2022-09-12T13:39:22.182Z,0.50
2022-09-12T13:42:49.277Z,0.70
2022-09-12T13:45:27.698Z,0.40
2022-09-12T13:48:02.022Z,0.35
2022-09-12T13:50:46.257Z,0.52
2022-09-12T13:53:25.871Z,0.40
2022-09-12T13:56:01.250Z,0.50
2022-09-12T13:58:36.819Z,0.52
2022-09-12T14:01:15.998Z,0.60
2022-09-12T14:04:12.569Z,0.60
2022-09-12T14:06:50.673Z,0.40
2022-09-12T14:09:38.544Z,0.73
2022-09-12T14:12:25.643Z,0.40
2022-09-12T14:14:53.591Z,0.50
2022-09-12T14:17:39.670Z,0.50
2022-09-12T14:20:18.507Z,0.47
2022-09-12T14:22:50.938Z,1.08
2022-09-12T14:25:29.979Z,0.65
2022-09-12T14:27:59.029Z,0.52
2022-09-12T14:30:36.703Z,0.80
2022-09-12T14:33:12.657Z,0.63
2022-09-12T14:36:32.661Z,0.63
2022-09-12T14:39:14.311Z,0.60
2022-09-12T14:41:43.037Z,0.70
2022-09-12T14:44:22.913Z,0.60
2022-09-12T14:46:50.363Z,0.57
2022-09-12T14:49:28.759Z,0.68
2022-09-12T14:52:00.850Z,0.50
2022-09-12T14:54:31.090Z,0.40
2022-09-12T14:57:19.220Z,0.47
2022-09-12T14:59:46.275Z,0.50
2022-09-12T15:02:26.087Z,0.55
2022-09-12T15:05:12.790Z,0.60
2022-09-12T15:07:47.097Z,0.50
2022-09-12T15:10:37.609Z,0.50
2022-09-12T15:13:11.076Z,0.50
2022-09-12T15:15:41.339Z,0.40
2022-09-12T15:18:10.647Z,0.63
2022-09-12T15:20:41.247Z,0.65
2022-09-12T15:23:51.140Z,0.65
2022-09-12T15:26:26.389Z,0.40
2022-09-12T15:28:53.958Z,0.80
2022-09-12T15:31:32.586Z,0.52
2022-09-12T15:34:02.521Z,0.40
2022-09-12T15:36:29.799Z,0.70
2022-09-12T15:38:57.504Z,0.60
2022-09-12T15:41:36.948Z,0.30
2022-09-12T15:44:13.250Z,0.60
2022-09-12T15:46:40.581Z,0.73
2022-09-12T15:49:07.747Z,0.45
2022-09-12T15:51:34.735Z,0.50
2022-09-12T15:54:04.375Z,0.55
2022-09-12T15:56:31.401Z,0.50
2022-09-12T15:59:00.052Z,0.50
2022-09-12T16:01:28.886Z,0.60
2022-09-12T16:03:58.522Z,0.52
2022-09-12T16:06:25.919Z,0.63
2022-09-12T16:08:52.945Z,0.50
2022-09-12T16:11:26.633Z,0.57
2022-09-12T16:13:55.971Z,0.60
2022-09-12T16:16:23.513Z,0.50
2022-09-12T16:18:50.658Z,0.43
2022-09-12T16:21:18.122Z,0.50
2022-09-12T16:23:47.082Z,0.55
2022-09-12T16:26:14.926Z,0.70
2022-09-12T16:28:42.096Z,0.70
2022-09-12T16:31:13.580Z,0.70
2022-09-12T16:33:40.893Z,0.70
2022-09-12T16:36:13.069Z,0.40
2022-09-12T16:38:53.683Z,0.50
2022-09-12T16:41:27.296Z,0.68
2022-09-12T16:43:55.171Z,0.40
2022-09-12T16:46:30.658Z,0.50
2022-09-12T16:48:59.013Z,0.60
2022-09-12T16:51:32.278Z,0.80
2022-09-12T16:53:59.350Z,0.60
2022-09-12T16:56:26.433Z,2.08
2022-09-12T16:58:53.969Z,0.80
2022-09-12T17:01:26.270Z,0.82
2022-09-12T17:03:58.369Z,1.00
2022-09-12T17:06:26.892Z,1.00
2022-09-12T17:09:00.718Z,0.55
2022-09-12T17:11:36.351Z,0.55
2022-09-12T17:14:07.616Z,0.63
2022-09-12T17:16:41.931Z,0.75
2022-09-12T17:19:30.171Z,0.57
2022-09-12T17:21:58.591Z,0.65
2022-09-12T17:24:25.806Z,0.73
2022-09-12T17:26:53.663Z,1.10
2022-09-12T17:29:21.025Z,0.95
2022-09-12T17:31:48.809Z,1.00
2022-09-12T17:34:16.337Z,0.80
2022-09-12T17:36:45.360Z,1.00
2022-09-12T17:39:13.843Z,1.00
2022-09-12T17:41:42.590Z,0.80
2022-09-12T17:44:13.825Z,0.80
2022-09-12T17:46:41.591Z,0.88
2022-09-12T17:49:15.458Z,1.02
2022-09-12T17:51:43.925Z,0.80
2022-09-12T17:54:18.255Z,0.82
2022-09-12T17:56:48.984Z,0.60
2022-09-12T17:59:23.950Z,0.88
2022-09-12T18:02:09.925Z,0.70
2022-09-12T18:04:37.401Z,0.70
2022-09-12T18:07:04.910Z,0.77
2022-09-12T18:09:32.107Z,0.77
2022-09-12T18:11:59.587Z,1.00
2022-09-12T18:14:28.236Z,0.80
2022-09-12T18:16:57.137Z,1.17
2022-09-12T18:19:24.723Z,1.40
2022-09-12T18:21:51.660Z,1.20
2022-09-12T18:24:18.766Z,1.23
2022-09-12T18:26:46.018Z,1.30
2022-09-12T18:29:16.864Z,1.00
2022-09-12T18:31:45.987Z,0.93
2022-09-12T18:34:14.036Z,1.20
2022-09-12T18:36:43.417Z,1.13
2022-09-12T18:39:11.437Z,1.15
2022-09-12T18:41:39.069Z,0.98
2022-09-12T18:44:07.599Z,1.20
2022-09-12T18:46:35.691Z,1.30
2022-09-12T18:49:03.545Z,1.48
2022-09-12T18:51:34.870Z,1.20
2022-09-12T18:54:11.357Z,1.20
2022-09-12T18:56:39.408Z,1.30
2022-09-12T18:59:07.640Z,1.40
2022-09-12T19:01:38.197Z,1.40
2022-09-12T19:04:08.010Z,1.43
2022-09-12T19:06:42.774Z,1.20
2022-09-12T19:09:12.924Z,1.20
2022-09-12T19:11:49.548Z,2.00
2022-09-12T19:14:23.240Z,1.60
2022-09-12T19:16:52.052Z,1.30
2022-09-12T19:19:21.182Z,1.73
2022-09-12T19:21:48.550Z,1.80
2022-09-12T19:24:16.980Z,1.10
2022-09-12T19:26:44.716Z,1.80
2022-09-12T19:29:13.757Z,1.80
2022-09-12T19:31:41.023Z,2.00
2022-09-12T19:34:08.293Z,2.50
2022-09-12T19:36:51.420Z,1.80
2022-09-12T19:39:19.842Z,2.23
2022-09-12T19:41:48.157Z,2.10
2022-09-12T19:44:15.233Z,2.10
2022-09-12T19:46:42.590Z,2.00
2022-09-12T19:49:12.747Z,1.90
2022-09-12T19:51:40.287Z,2.30
2022-09-12T19:54:07.802Z,2.30
2022-09-12T19:56:34.899Z,2.50
2022-09-12T19:59:01.882Z,2.37
2022-09-12T20:01:29.162Z,2.13
2022-09-12T20:03:58.340Z,2.10
2022-09-12T20:06:27.261Z,2.00
2022-09-12T20:08:55.318Z,2.27
2022-09-12T20:11:24.012Z,2.37
2022-09-12T20:13:51.646Z,2.40
2022-09-12T20:16:26.453Z,2.30
2022-09-12T20:19:03.767Z,1.73
2022-09-12T20:21:34.081Z,2.10
2022-09-12T20:24:15.724Z,2.77
2022-09-12T20:26:42.924Z,2.57
2022-09-12T20:29:10.779Z,2.20
2022-09-12T20:31:41.765Z,2.80
2022-09-12T20:34:17.729Z,2.60
2022-09-12T20:36:45.879Z,2.87
2022-09-12T20:39:22.533Z,2.47
2022-09-12T20:41:50.019Z,2.80
2022-09-12T20:44:17.205Z,2.70
2022-09-12T20:46:44.289Z,2.30
2022-09-12T20:49:11.431Z,2.87
2022-09-12T20:51:38.931Z,3.43
2022-09-12T20:54:07.304Z,2.83
2022-09-12T20:56:37.137Z,2.70
2022-09-12T20:59:05.101Z,2.80
2022-09-12T21:01:32.675Z,2.60
2022-09-12T21:04:01.093Z,2.73
2022-09-12T21:06:28.395Z,2.40
2022-09-12T21:09:00.599Z,2.50
2022-09-12T21:11:29.003Z,2.43
2022-09-12T21:13:56.315Z,2.50
2022-09-12T21:16:23.973Z,3.13
2022-09-12T21:18:58.055Z,2.67
2022-09-12T21:21:26.063Z,2.90
2022-09-12T21:23:55.193Z,2.50
2022-09-12T21:26:22.134Z,3.20
2022-09-12T21:28:49.097Z,2.90
2022-09-12T21:31:16.300Z,3.07
2022-09-12T21:33:43.314Z,3.40
2022-09-12T21:36:10.569Z,3.07
2022-09-12T21:38:37.570Z,3.10
2022-09-12T21:41:16.299Z,3.60
2022-09-12T21:43:43.943Z,3.07
2022-09-12T21:46:11.900Z,3.17
2022-09-12T21:48:38.947Z,2.90
2022-09-12T21:51:06.864Z,3.07
2022-09-12T21:53:35.415Z,3.00
2022-09-12T21:56:07.147Z,3.47
2022-09-12T21:58:35.150Z,2.20
2022-09-12T22:01:04.528Z,2.90
2022-09-12T22:03:32.018Z,3.10
2022-09-12T22:06:01.874Z,3.20
2022-09-12T22:08:32.528Z,2.80
2022-09-12T22:11:03.457Z,3.20
2022-09-12T22:13:32.019Z,2.47
2022-09-12T22:16:03.134Z,2.70
2022-09-12T22:18:34.564Z,2.63
2022-09-12T22:21:14.145Z,3.33
2022-09-12T22:24:00.430Z,2.50
2022-09-12T22:26:28.105Z,3.03
2022-09-12T22:28:55.443Z,2.90
2022-09-12T22:31:23.100Z,2.50
2022-09-12T22:33:51.418Z,2.67
2022-09-12T22:36:18.370Z,2.30
2022-09-12T22:38:45.399Z,2.87
2022-09-12T22:41:13.120Z,2.10
2022-09-12T22:43:40.315Z,2.50
2022-09-12T22:46:14.786Z,2.67
2022-09-12T22:48:42.728Z,2.10
2022-09-12T22:51:10.718Z,2.37
2022-09-12T22:53:38.175Z,2.17
2022-09-12T22:56:07.015Z,2.17
2022-09-12T22:58:39.147Z,2.80
2022-09-12T23:01:07.197Z,2.17
2022-09-12T23:03:34.557Z,2.03
2022-09-12T23:06:01.925Z,2.30
2022-09-12T23:08:29.616Z,2.10
2022-09-12T23:11:19.627Z,2.33
2022-09-12T23:13:49.595Z,2.20
2022-09-12T23:16:21.585Z,2.20
2022-09-12T23:18:49.301Z,2.30
2022-09-12T23:21:21.187Z,2.47
2022-09-12T23:23:48.496Z,2.53
2022-09-12T23:26:28.130Z,2.67
2022-09-12T23:28:59.034Z,2.90
2022-09-12T23:31:30.266Z,2.70
2022-09-12T23:34:02.110Z,2.40
2022-09-12T23:36:29.680Z,3.17
2022-09-12T23:38:58.133Z,3.10
2022-09-12T23:41:25.467Z,3.57
2022-09-12T23:43:52.638Z,3.07
2022-09-12T23:46:20.785Z,2.90
2022-09-12T23:48:48.312Z,2.60
2022-09-12T23:51:15.941Z,2.77
2022-09-12T23:53:42.951Z,2.60
2022-09-12T23:56:10.023Z,2.17
2022-09-12T23:58:37.126Z,2.73
